Time;durP1;ratioP1;P1;durP2;ratioP2;P2;SDS_P1;SDS_P2;PMS_P1;PMS_P2;Temp;Humidity;BMP_temperature;BMP_pressure;BME280_temperature;BME280_humidity;BME280_pressure;Samples;Min_cycle;Max_cycle;Signal;HPM_P1;HPM_P2
2023/12/25 00:01:30;;;;;;;;;;;;;;;;;;;;;
2023/12/25 00:03:56;;;;;;;2.30;0.80;;;9.30;99.90;;;;;;5062982;28;20069;-34
2023/12/25 00:06:23;;;;;;;0.70;0.70;;;9.20;99.90;;;;;;5078534;28;20032;-33
2023/12/25 00:08:51;;;;;;;0.70;0.70;;;9.20;99.90;;;;;;5061915;28;20037;-33
2023/12/25 00:11:20;;;;;;;0.80;0.80;;;9.10;99.90;;;;;;5062736;28;20535;-32
2023/12/25 00:13:52;;;;;;;0.88;0.88;;;9.10;99.90;;;;;;5061451;28;20076;-32
2023/12/25 00:16:25;;;;;;;0.70;0.70;;;9.10;99.90;;;;;;5060085;28;20119;-31
2023/12/25 00:19:00;;;;;;;0.60;0.60;;;9.10;99.90;;;;;;5059267;28;20079;-33
2023/12/25 00:21:26;;;;;;;0.73;0.73;;;9.10;99.90;;;;;;5063429;28;20048;-33
2023/12/25 00:23:53;;;;;;;0.73;0.70;;;9.10;99.90;;;;;;5079028;28;20032;-33
2023/12/25 00:26:18;;;;;;;0.73;0.73;;;9.20;99.90;;;;;;5065297;28;20132;-31
2023/12/25 00:28:44;;;;;;;0.80;0.80;;;9.10;99.90;;;;;;5063465;28;20211;-31
2023/12/25 00:31:10;;;;;;;0.63;0.60;;;9.10;99.90;;;;;;5061709;28;20035;-33
2023/12/25 00:33:35;;;;;;;0.63;0.63;;;9.20;99.90;;;;;;5064595;28;20033;-30
2023/12/25 00:36:01;;;;;;;1.02;0.80;;;9.30;99.90;;;;;;5067354;28;20115;-33
2023/12/25 00:38:27;;;;;;;0.93;0.93;;;9.30;99.90;;;;;;5067402;28;20035;-34
2023/12/25 00:40:52;;;;;;;0.90;0.90;;;9.20;99.90;;;;;;5068078;28;20032;-33
2023/12/25 00:43:18;;;;;;;0.50;0.50;;;9.20;99.90;;;;;;5067644;28;20082;-33
2023/12/25 00:45:43;;;;;;;0.80;0.80;;;9.30;99.90;;;;;;5064610;28;20065;-30
2023/12/25 00:48:09;;;;;;;0.70;0.70;;;9.20;99.90;;;;;;5065721;28;20399;-30
2023/12/25 00:50:35;;;;;;;0.50;0.50;;;9.10;99.90;;;;;;5064893;28;20029;-33
2023/12/25 00:53:00;;;;;;;0.70;0.70;;;9.10;99.90;;;;;;5064905;28;20478;-31
2023/12/25 00:55:26;;;;;;;0.50;0.50;;;9.10;99.90;;;;;;5066000;28;20108;-31
2023/12/25 00:57:51;;;;;;;0.73;0.73;;;9.10;99.90;;;;;;5065296;28;20442;-32
2023/12/25 01:00:17;;;;;;;0.50;0.50;;;9.10;99.90;;;;;;5066974;28;20067;-31
2023/12/25 01:02:43;;;;;;;0.55;0.55;;;9.00;99.90;;;;;;5066844;28;20522;-32
2023/12/25 01:05:09;;;;;;;0.50;0.50;;;9.00;99.90;;;;;;5067338;28;20527;-35
2023/12/25 01:10:33;;;;;;;1.23;0.90;;;9.00;99.90;;;;;;5001855;28;20044;-70
2023/12/25 01:13:03;;;;;;;1.10;1.00;;;8.90;99.90;;;;;;4978308;28;20127;-71
2023/12/25 01:15:29;;;;;;;0.90;0.90;;;8.90;99.90;;;;;;4981465;28;20484;-71
2023/12/25 01:17:54;;;;;;;0.80;0.80;;;8.90;99.90;;;;;;4976578;28;20113;-70
2023/12/25 01:20:20;;;;;;;0.75;0.75;;;8.80;99.90;;;;;;4972737;28;20018;-71
2023/12/25 01:22:46;;;;;;;0.90;0.90;;;8.70;99.90;;;;;;4968815;28;20047;-70
2023/12/25 01:25:11;;;;;;;0.65;0.65;;;8.70;99.90;;;;;;4974826;28;20031;-70
2023/12/25 01:27:41;;;;;;;1.50;0.65;;;8.70;99.90;;;;;;4982654;28;20041;-72
2023/12/25 01:30:09;;;;;;;0.80;0.80;;;8.70;99.90;;;;;;4990896;28;20023;-70
2023/12/25 01:32:35;;;;;;;0.70;0.70;;;8.70;99.90;;;;;;4955221;28;20095;-71
2023/12/25 01:35:00;;;;;;;1.27;0.80;;;8.70;99.90;;;;;;4966438;28;20133;-71
2023/12/25 01:37:26;;;;;;;0.70;0.70;;;8.60;99.90;;;;;;4967567;28;20027;-71
2023/12/25 01:39:51;;;;;;;0.70;0.70;;;8.60;99.90;;;;;;4969784;28;20038;-71
2023/12/25 01:42:17;;;;;;;0.60;0.60;;;8.50;99.90;;;;;;4958650;28;20031;-70
2023/12/25 01:44:44;;;;;;;1.08;0.60;;;8.50;99.90;;;;;;4970337;28;20109;-69
2023/12/25 01:47:12;;;;;;;0.57;0.57;;;8.50;99.90;;;;;;4964376;28;20023;-70
2023/12/25 01:49:38;;;;;;;1.02;0.90;;;8.50;99.90;;;;;;4976663;28;20027;-70
2023/12/25 01:52:04;;;;;;;0.70;0.70;;;8.60;99.90;;;;;;4959068;28;20085;-69
2023/12/25 01:54:30;;;;;;;0.60;0.60;;;8.60;99.90;;;;;;4955960;28;20043;-70
2023/12/25 01:56:56;;;;;;;0.70;0.70;;;8.60;99.90;;;;;;4969130;28;20057;-69
2023/12/25 01:59:21;;;;;;;0.65;0.60;;;8.50;99.90;;;;;;4977311;28;20038;-70
2023/12/25 02:01:47;;;;;;;2.70;1.13;;;8.50;99.90;;;;;;4975956;28;20042;-70
2023/12/25 02:04:13;;;;;;;3.05;0.70;;;8.40;99.90;;;;;;4952666;28;20038;-71
2023/12/25 02:06:39;;;;;;;1.08;0.80;;;8.50;99.90;;;;;;4969319;28;20032;-70
2023/12/25 02:09:04;;;;;;;2.38;0.68;;;8.50;99.90;;;;;;4954135;28;20043;-69
2023/12/25 02:11:30;;;;;;;0.70;0.70;;;8.50;99.90;;;;;;4962368;28;20457;-71
2023/12/25 02:13:57;;;;;;;0.85;0.70;;;8.50;99.90;;;;;;4972163;28;20126;-71
2023/12/25 02:16:24;;;;;;;0.70;0.70;;;8.60;99.90;;;;;;4965809;28;20107;-69
2023/12/25 02:18:51;;;;;;;0.60;0.60;;;8.60;99.90;;;;;;4958610;28;20032;-70
2023/12/25 02:21:16;;;;;;;1.10;0.70;;;8.60;99.90;;;;;;4962896;28;20051;-69
2023/12/25 02:23:44;;;;;;;0.85;0.60;;;8.60;99.90;;;;;;4950177;28;20447;-70
2023/12/25 02:26:11;;;;;;;0.60;0.60;;;8.60;99.90;;;;;;4979151;28;20026;-71
2023/12/25 02:28:37;;;;;;;0.57;0.55;;;8.60;99.90;;;;;;4951197;28;20039;-70
2023/12/25 02:31:05;;;;;;;0.50;0.50;;;8.60;99.90;;;;;;4973665;28;20079;-69
2023/12/25 02:33:31;;;;;;;0.80;0.80;;;8.60;99.90;;;;;;5047766;28;20021;-69
2023/12/25 02:35:57;;;;;;;0.50;0.50;;;8.60;99.90;;;;;;5049624;28;20025;-71
2023/12/25 02:38:23;;;;;;;1.35;0.80;;;8.60;99.90;;;;;;5052346;28;20481;-70
2023/12/25 02:40:48;;;;;;;1.35;0.80;;;8.60;99.90;;;;;;5050002;28;20518;-69
2023/12/25 02:43:14;;;;;;;0.98;0.75;;;8.60;99.90;;;;;;5048420;28;20024;-70
2023/12/25 02:45:40;;;;;;;0.60;0.60;;;8.60;99.90;;;;;;5048660;28;20331;-70
2023/12/25 02:48:09;;;;;;;0.70;0.70;;;8.70;99.90;;;;;;5052666;28;20021;-70
2023/12/25 02:50:35;;;;;;;0.70;0.70;;;8.80;99.90;;;;;;5050420;28;20035;-71
2023/12/25 02:53:06;;;;;;;0.70;0.70;;;8.70;99.90;;;;;;5047011;28;20090;-70
2023/12/25 02:55:31;;;;;;;0.70;0.70;;;8.70;99.90;;;;;;5047015;28;20021;-71
2023/12/25 02:57:57;;;;;;;0.70;0.70;;;8.60;99.90;;;;;;5049075;28;20033;-70
2023/12/25 03:00:23;;;;;;;0.70;0.70;;;8.60;99.90;;;;;;5048165;28;20381;-69
2023/12/25 03:02:48;;;;;;;0.70;0.70;;;8.70;99.90;;;;;;4971002;28;20502;-71
2023/12/25 03:05:14;;;;;;;3.50;0.80;;;8.60;99.90;;;;;;4967486;28;20221;-70
2023/12/25 03:07:40;;;;;;;2.75;0.60;;;8.60;99.90;;;;;;4971198;28;20038;-70
2023/12/25 03:10:06;;;;;;;0.70;0.70;;;8.60;99.90;;;;;;4966535;28;20259;-70
2023/12/25 03:12:32;;;;;;;0.80;0.80;;;8.70;99.90;;;;;;4980352;28;20034;-70
2023/12/25 03:14:57;;;;;;;1.02;0.88;;;8.60;99.90;;;;;;4969334;28;20027;-70
2023/12/25 03:17:23;;;;;;;0.70;0.70;;;8.60;99.90;;;;;;4982423;28;20042;-70
2023/12/25 03:19:56;;;;;;;0.70;0.70;;;8.60;99.90;;;;;;4969223;28;20038;-71
2023/12/25 03:22:22;;;;;;;0.93;0.93;;;8.70;99.90;;;;;;4970826;28;20038;-70
2023/12/25 03:24:48;;;;;;;0.70;0.70;;;8.70;99.90;;;;;;5001489;28;20035;-70
2023/12/25 03:27:14;;;;;;;0.70;0.70;;;8.70;99.90;;;;;;4965300;28;20338;-69
2023/12/25 03:29:39;;;;;;;0.60;0.60;;;8.60;99.90;;;;;;4964572;28;20065;-69
2023/12/25 03:32:05;;;;;;;0.70;0.70;;;8.50;99.90;;;;;;4998335;28;20050;-70
2023/12/25 03:34:31;;;;;;;0.68;0.68;;;8.50;99.90;;;;;;4979928;28;20033;-70
2023/12/25 03:36:56;;;;;;;0.70;0.70;;;8.60;99.90;;;;;;4966805;28;20031;-70
2023/12/25 03:39:22;;;;;;;0.70;0.60;;;8.60;99.90;;;;;;4965852;28;20054;-70
2023/12/25 03:41:48;;;;;;;0.77;0.77;;;8.60;99.90;;;;;;4974211;28;20027;-71
2023/12/25 03:44:14;;;;;;;0.80;0.80;;;8.50;99.90;;;;;;4967699;28;20330;-70
2023/12/25 03:46:39;;;;;;;0.57;0.57;;;8.60;99.90;;;;;;5009862;28;20031;-69
2023/12/25 03:49:05;;;;;;;0.75;0.75;;;8.70;99.90;;;;;;4991145;28;20030;-69
2023/12/25 03:51:35;;;;;;;0.65;0.50;;;8.70;99.90;;;;;;4976296;28;21295;-70
2023/12/25 03:54:00;;;;;;;0.60;0.60;;;8.80;99.90;;;;;;4970261;28;20032;-70
2023/12/25 03:56:26;;;;;;;1.38;0.68;;;8.90;99.90;;;;;;4980044;28;20503;-70
2023/12/25 03:58:51;;;;;;;0.60;0.60;;;8.90;99.90;;;;;;4974303;28;20476;-70
2023/12/25 04:01:17;;;;;;;0.80;0.80;;;8.80;99.90;;;;;;4992486;28;20034;-70
2023/12/25 04:03:43;;;;;;;0.90;0.90;;;8.80;99.90;;;;;;4948256;28;20065;-70
2023/12/25 04:06:08;;;;;;;0.57;0.57;;;8.70;99.90;;;;;;4959755;28;20023;-70
2023/12/25 04:08:34;;;;;;;0.60;0.60;;;8.70;99.90;;;;;;4947779;28;20129;-70
2023/12/25 04:10:59;;;;;;;0.80;0.80;;;8.60;99.90;;;;;;4964574;28;20043;-70
2023/12/25 04:13:25;;;;;;;0.70;0.70;;;8.60;99.90;;;;;;4964700;28;20126;-70
2023/12/25 04:15:51;;;;;;;1.55;0.98;;;8.50;99.90;;;;;;4949592;28;20042;-69
2023/12/25 04:18:17;;;;;;;0.60;0.60;;;8.50;99.90;;;;;;4948763;28;20034;-71
2023/12/25 04:20:45;;;;;;;0.73;0.73;;;8.50;99.90;;;;;;4948865;28;20035;-70
2023/12/25 04:23:11;;;;;;;0.82;0.82;;;8.50;99.90;;;;;;4975738;28;20023;-70
2023/12/25 04:25:36;;;;;;;0.80;0.80;;;8.50;99.90;;;;;;4951399;28;20039;-70
2023/12/25 04:28:02;;;;;;;0.90;0.90;;;8.50;99.90;;;;;;4964457;28;20035;-70
2023/12/25 04:30:28;;;;;;;0.60;0.60;;;8.40;99.90;;;;;;4961984;28;20110;-70
2023/12/25 04:32:54;;;;;;;0.70;0.70;;;8.40;99.90;;;;;;4961630;28;20118;-70
2023/12/25 04:35:19;;;;;;;1.35;0.90;;;8.30;99.90;;;;;;4948931;28;20104;-70
2023/12/25 04:37:46;;;;;;;1.15;0.90;;;8.30;99.90;;;;;;4963542;28;20039;-70
2023/12/25 04:40:12;;;;;;;0.70;0.70;;;8.30;99.90;;;;;;4949445;28;20145;-69
2023/12/25 04:42:37;;;;;;;0.80;0.80;;;8.30;99.90;;;;;;4958014;28;20047;-70
2023/12/25 04:45:03;;;;;;;0.75;0.75;;;8.30;99.90;;;;;;4959636;28;20031;-70
2023/12/25 04:47:29;;;;;;;0.68;0.60;;;8.30;99.90;;;;;;4947856;28;20114;-69
2023/12/25 04:49:54;;;;;;;0.98;0.93;;;8.30;99.90;;;;;;4966180;28;20348;-70
2023/12/25 04:52:20;;;;;;;0.88;0.88;;;8.30;99.90;;;;;;4989109;28;20039;-70
2023/12/25 04:54:46;;;;;;;0.77;0.77;;;8.30;99.90;;;;;;4948678;28;20039;-70
2023/12/25 04:57:12;;;;;;;0.80;0.80;;;8.30;99.90;;;;;;4969432;28;20055;-71
2023/12/25 04:59:38;;;;;;;0.98;0.88;;;8.30;99.90;;;;;;4946113;28;20034;-71
2023/12/25 05:02:04;;;;;;;0.68;0.68;;;8.20;99.90;;;;;;4946769;28;20036;-69
2023/12/25 05:04:29;;;;;;;0.70;0.70;;;8.20;99.90;;;;;;4945763;28;20311;-69
2023/12/25 05:06:55;;;;;;;0.90;0.90;;;8.20;99.90;;;;;;4946136;28;20510;-69
2023/12/25 05:09:21;;;;;;;0.75;0.75;;;8.20;99.90;;;;;;4946797;28;20043;-69
2023/12/25 05:11:46;;;;;;;1.42;0.80;;;8.10;99.90;;;;;;4951101;28;20035;-69
2023/12/25 05:14:12;;;;;;;0.70;0.70;;;8.10;99.90;;;;;;4952632;28;20023;-69
2023/12/25 05:16:38;;;;;;;0.88;0.88;;;8.10;99.90;;;;;;4947518;28;20088;-69
2023/12/25 05:19:03;;;;;;;0.60;0.60;;;8.00;99.90;;;;;;4954547;28;20461;-70
2023/12/25 05:21:29;;;;;;;0.82;0.82;;;8.00;99.90;;;;;;4963790;28;20027;-71
2023/12/25 05:23:54;;;;;;;0.77;0.77;;;8.10;99.90;;;;;;4955631;28;20045;-71
2023/12/25 05:26:21;;;;;;;0.80;0.80;;;8.20;99.90;;;;;;4953763;28;20493;-71
2023/12/25 05:28:47;;;;;;;0.80;0.80;;;8.20;99.90;;;;;;4956374;28;20097;-70
2023/12/25 05:31:13;;;;;;;0.77;0.77;;;8.10;99.90;;;;;;4966565;28;20039;-70
2023/12/25 05:33:42;;;;;;;0.70;0.70;;;8.20;99.90;;;;;;4967753;28;20042;-70
2023/12/25 05:36:08;;;;;;;0.55;0.55;;;8.10;99.90;;;;;;4950580;28;20035;-70
2023/12/25 05:38:33;;;;;;;0.82;0.82;;;8.10;99.90;;;;;;4965464;28;20023;-70
2023/12/25 05:40:59;;;;;;;0.85;0.80;;;8.10;99.90;;;;;;4946787;28;20077;-70
2023/12/25 05:43:25;;;;;;;0.77;0.77;;;8.00;99.90;;;;;;4949128;28;20038;-70
2023/12/25 05:45:51;;;;;;;0.80;0.80;;;8.10;99.90;;;;;;4964377;28;20046;-70
2023/12/25 05:48:17;;;;;;;0.85;0.85;;;8.00;99.90;;;;;;4963778;28;20031;-70
2023/12/25 05:50:43;;;;;;;1.85;0.80;;;8.00;99.90;;;;;;4957472;28;20042;-70
2023/12/25 05:53:08;;;;;;;0.70;0.70;;;8.00;99.90;;;;;;4946537;28;20071;-70
2023/12/25 05:55:34;;;;;;;0.70;0.70;;;8.00;99.90;;;;;;4952716;28;20436;-68
2023/12/25 05:58:00;;;;;;;0.77;0.77;;;8.00;99.90;;;;;;4948423;28;20024;-70
2023/12/25 06:00:25;;;;;;;0.95;0.95;;;8.00;99.90;;;;;;4952633;28;20060;-70
2023/12/25 06:02:51;;;;;;;1.23;1.13;;;8.00;99.90;;;;;;5065909;28;20041;-71
2023/12/25 06:05:17;;;;;;;0.77;0.77;;;8.00;99.90;;;;;;5054932;28;20028;-70
2023/12/25 06:07:42;;;;;;;1.00;1.00;;;8.10;99.90;;;;;;5053195;28;20064;-73
2023/12/25 06:10:08;;;;;;;0.73;0.70;;;8.10;99.90;;;;;;5066935;28;20119;-69
2023/12/25 06:12:34;;;;;;;1.02;0.90;;;8.10;99.90;;;;;;5049456;28;20404;-70
2023/12/25 06:15:03;;;;;;;1.35;1.20;;;8.10;99.90;;;;;;5048577;28;20027;-72
2023/12/25 06:17:29;;;;;;;0.70;0.70;;;8.10;99.90;;;;;;5049587;28;20100;-70
2023/12/25 06:19:54;;;;;;;0.70;0.70;;;8.20;99.90;;;;;;5048877;28;20072;-71
2023/12/25 06:22:20;;;;;;;0.70;0.70;;;8.30;99.90;;;;;;5048453;28;20419;-70
2023/12/25 06:24:46;;;;;;;0.75;0.73;;;8.20;99.90;;;;;;5047898;28;20033;-69
2023/12/25 06:27:11;;;;;;;0.70;0.70;;;8.20;99.90;;;;;;5043409;28;20056;-69
2023/12/25 06:29:38;;;;;;;0.80;0.80;;;8.20;99.90;;;;;;5048309;28;20036;-70
2023/12/25 06:32:04;;;;;;;0.80;0.80;;;8.10;99.90;;;;;;4986505;28;20035;-70
2023/12/25 06:34:29;;;;;;;1.45;0.80;;;8.10;99.90;;;;;;4970473;28;20088;-71
2023/12/25 06:36:55;;;;;;;1.40;1.25;;;8.00;99.90;;;;;;4974199;28;20030;-70
2023/12/25 06:39:21;;;;;;;0.70;0.70;;;8.00;99.90;;;;;;5006262;28;20533;-70
2023/12/25 06:41:46;;;;;;;1.00;0.90;;;8.00;99.90;;;;;;4987120;28;20027;-70
2023/12/25 06:44:12;;;;;;;0.80;0.80;;;8.10;99.90;;;;;;4975066;28;20084;-70
2023/12/25 06:46:39;;;;;;;0.70;0.70;;;8.10;99.90;;;;;;4989652;28;20613;-70
2023/12/25 06:49:04;;;;;;;1.05;0.93;;;8.10;99.90;;;;;;4982696;28;20035;-69
2023/12/25 06:51:30;;;;;;;0.80;0.80;;;8.00;99.90;;;;;;4982317;28;20034;-70
2023/12/25 06:53:56;;;;;;;0.85;0.85;;;8.00;99.90;;;;;;4977936;28;20084;-70
2023/12/25 06:56:23;;;;;;;0.70;0.70;;;8.00;99.90;;;;;;4979372;28;20039;-69
2023/12/25 06:58:48;;;;;;;0.75;0.70;;;8.00;99.90;;;;;;4968441;28;20027;-70
2023/12/25 07:01:20;;;;;;;0.90;0.90;;;8.00;99.90;;;;;;4951963;28;20036;-69
2023/12/25 07:03:46;;;;;;;0.95;0.90;;;8.00;99.90;;;;;;4963530;28;20039;-69
2023/12/25 07:06:14;;;;;;;0.80;0.80;;;8.00;99.90;;;;;;4945337;28;20046;-70
2023/12/25 07:08:40;;;;;;;0.80;0.80;;;8.00;99.90;;;;;;4962127;28;20391;-69
2023/12/25 07:11:05;;;;;;;1.17;0.95;;;8.00;99.90;;;;;;4962372;28;20076;-70
2023/12/25 07:13:33;;;;;;;0.80;0.80;;;8.00;99.90;;;;;;4963947;28;20050;-69
2023/12/25 07:16:00;;;;;;;0.80;0.80;;;8.00;99.90;;;;;;4946517;28;20475;-70
2023/12/25 07:18:26;;;;;;;0.93;0.90;;;8.00;99.90;;;;;;4948929;28;20079;-69
2023/12/25 07:20:51;;;;;;;0.90;0.90;;;7.90;99.90;;;;;;4969885;28;20106;-69
2023/12/25 07:23:19;;;;;;;0.80;0.80;;;7.90;99.90;;;;;;4949937;28;20502;-69
2023/12/25 07:25:44;;;;;;;0.50;0.50;;;7.90;99.90;;;;;;4959869;28;20032;-70
2023/12/25 07:28:13;;;;;;;0.68;0.68;;;7.90;99.90;;;;;;4957834;28;20039;-69
2023/12/25 07:30:39;;;;;;;0.90;0.90;;;8.00;99.90;;;;;;4953849;28;20165;-69
2023/12/25 07:33:04;;;;;;;0.88;0.80;;;7.90;99.90;;;;;;4956537;28;20578;-69
2023/12/25 07:35:30;;;;;;;1.33;0.95;;;7.80;99.90;;;;;;4976104;28;20034;-69
2023/12/25 07:37:56;;;;;;;0.73;0.73;;;7.80;99.90;;;;;;4948219;28;20051;-69
2023/12/25 07:40:22;;;;;;;1.10;1.00;;;7.90;99.90;;;;;;4956228;28;20496;-70
2023/12/25 07:42:48;;;;;;;1.58;0.80;;;7.90;99.90;;;;;;4947901;28;20035;-70
2023/12/25 07:45:14;;;;;;;0.70;0.70;;;7.80;99.90;;;;;;4953085;28;20027;-71
2023/12/25 07:47:40;;;;;;;0.85;0.85;;;7.90;99.90;;;;;;4972274;28;20053;-70
2023/12/25 07:50:06;;;;;;;0.82;0.80;;;7.90;99.90;;;;;;4966855;28;20047;-70
2023/12/25 07:52:32;;;;;;;3.13;1.15;;;7.90;99.90;;;;;;4966202;28;20114;-71
2023/12/25 07:54:59;;;;;;;1.58;0.90;;;7.90;99.90;;;;;;4950626;28;20102;-70
2023/12/25 07:57:25;;;;;;;1.17;1.13;;;7.80;99.90;;;;;;4964238;28;20024;-69
2023/12/25 07:59:51;;;;;;;0.82;0.82;;;7.80;99.90;;;;;;4953236;28;20023;-68
2023/12/25 08:02:24;;;;;;;0.85;0.85;;;7.80;99.90;;;;;;4965694;28;20051;-69
2023/12/25 08:04:50;;;;;;;1.00;1.00;;;7.90;99.90;;;;;;4979849;28;20035;-69
2023/12/25 08:07:16;;;;;;;0.85;0.85;;;8.00;99.90;;;;;;4962518;28;20031;-68
2023/12/25 08:09:42;;;;;;;0.80;0.80;;;7.90;99.90;;;;;;4950039;28;20046;-69
2023/12/25 08:12:08;;;;;;;0.90;0.90;;;7.90;99.90;;;;;;4954357;28;20040;-69
2023/12/25 08:14:33;;;;;;;0.88;0.85;;;8.00;99.90;;;;;;4950629;28;20506;-70
2023/12/25 08:16:59;;;;;;;1.05;1.00;;;7.90;99.90;;;;;;4949029;28;20695;-70
2023/12/25 08:19:25;;;;;;;1.00;1.00;;;7.90;99.90;;;;;;4953262;28;20031;-70
2023/12/25 08:21:51;;;;;;;1.00;1.00;;;8.00;99.90;;;;;;4949158;28;20555;-69
2023/12/25 08:24:18;;;;;;;0.73;0.73;;;8.00;99.90;;;;;;4950254;28;20035;-70
2023/12/25 08:26:44;;;;;;;0.80;0.80;;;8.00;99.90;;;;;;4947050;28;20047;-70
2023/12/25 08:29:10;;;;;;;0.88;0.88;;;8.10;99.90;;;;;;4949089;28;20027;-69
2023/12/25 08:31:39;;;;;;;0.65;0.65;;;8.10;99.90;;;;;;4962200;28;20090;-70
2023/12/25 08:34:05;;;;;;;0.80;0.80;;;8.10;99.90;;;;;;4947286;28;20518;-70
2023/12/25 08:36:30;;;;;;;1.00;0.73;;;8.10;99.90;;;;;;4950728;28;20034;-69
2023/12/25 08:38:59;;;;;;;1.95;0.70;;;8.10;99.90;;;;;;4963508;28;20034;-71
2023/12/25 08:41:26;;;;;;;0.80;0.80;;;8.20;99.90;;;;;;4951562;28;20038;-70
2023/12/25 08:43:51;;;;;;;0.82;0.82;;;8.20;99.90;;;;;;4964080;28;20039;-70
2023/12/25 08:46:17;;;;;;;0.90;0.90;;;8.20;99.90;;;;;;4949651;28;20405;-69
2023/12/25 08:48:43;;;;;;;0.82;0.82;;;8.30;99.90;;;;;;4952211;28;20038;-69
2023/12/25 08:51:12;;;;;;;0.80;0.80;;;8.30;99.90;;;;;;4956068;28;20035;-70
2023/12/25 08:53:38;;;;;;;0.82;0.82;;;8.20;99.90;;;;;;4966919;28;20101;-70
2023/12/25 08:56:25;;;;;;;0.80;0.80;;;8.20;99.90;;;;;;4956764;28;20031;-70
2023/12/25 08:59:01;;;;;;;0.90;0.90;;;8.30;99.90;;;;;;4952074;28;20092;-70
2023/12/25 09:01:29;;;;;;;0.70;0.70;;;8.40;99.90;;;;;;4964397;28;20035;-69
2023/12/25 09:03:55;;;;;;;0.88;0.88;;;8.50;99.90;;;;;;4951414;28;20124;-70
2023/12/25 09:06:21;;;;;;;0.90;0.90;;;8.60;99.90;;;;;;4964757;28;20039;-70
2023/12/25 09:08:48;;;;;;;0.95;0.95;;;8.70;99.90;;;;;;4949460;28;20051;-70
2023/12/25 09:11:27;;;;;;;0.90;0.90;;;8.70;99.90;;;;;;4949580;28;20037;-69
2023/12/25 09:14:10;;;;;;;1.10;0.95;;;8.70;99.90;;;;;;4964833;28;20032;-70
2023/12/25 09:17:04;;;;;;;0.70;0.70;;;8.70;99.90;;;;;;4969988;28;20027;-70
2023/12/25 09:19:59;;;;;;;1.00;1.00;;;8.70;99.90;;;;;;4972173;28;20513;-70
2023/12/25 09:23:00;;;;;;;0.80;0.80;;;8.80;99.90;;;;;;4954408;28;20038;-70
2023/12/25 09:26:06;;;;;;;0.60;0.60;;;8.90;99.90;;;;;;4964997;28;20066;-71
2023/12/25 09:28:36;;;;;;;0.93;0.93;;;9.00;99.90;;;;;;4952811;28;20070;-70
2023/12/25 09:31:20;;;;;;;0.70;0.70;;;9.10;99.90;;;;;;4956199;28;20035;-73
2023/12/25 09:34:33;;;;;;;0.80;0.80;;;9.10;99.90;;;;;;5004406;28;20084;-71
2023/12/25 09:37:53;;;;;;;0.73;0.73;;;9.20;99.90;;;;;;4938939;28;20103;-70
2023/12/25 09:40:52;;;;;;;;;;;;;;;;;;;;;
2023/12/25 09:47:11;;;;;;;0.60;0.60;;;9.30;99.90;;;;;;4938356;28;20046;-70
2023/12/25 09:50:13;;;;;;;0.73;0.73;;;9.30;99.90;;;;;;4976903;28;20108;-70
2023/12/25 09:56:36;;;;;;;0.95;0.90;;;9.20;99.90;;;;;;4967828;28;20039;-71
2023/12/25 10:02:44;;;;;;;1.00;0.82;;;9.30;99.90;;;;;;4963348;28;20118;-71
2023/12/25 10:05:39;;;;;;;1.27;1.00;;;9.40;99.90;;;;;;4964181;28;20036;-70
2023/12/25 10:19:22;;;;;;;2.47;0.93;;;10.00;99.90;;;;;;4937371;29;20035;-71
2023/12/25 10:22:17;;;;;;;0.77;0.77;;;10.00;99.90;;;;;;4891649;29;20074;-71
2023/12/25 10:24:55;;;;;;;1.52;1.00;;;10.00;99.90;;;;;;4941482;28;20286;-70
2023/12/25 10:32:11;;;;;;;;;;;;;;;;;;;;;
2023/12/25 10:35:44;;;;;;;0.85;0.85;;;9.90;99.90;;;;;;4898524;29;20115;-71
2023/12/25 10:38:36;;;;;;;0.50;0.50;;;9.70;99.90;;;;;;4851710;29;20588;-70
2023/12/25 10:41:33;;;;;;;0.82;0.77;;;9.80;99.90;;;;;;4855969;29;20148;-72
2023/12/25 10:44:39;;;;;;;0.53;0.53;;;9.80;99.90;;;;;;4889170;29;20052;-70
2023/12/25 10:47:34;;;;;;;0.80;0.80;;;10.10;99.90;;;;;;4923896;29;20837;-71
2023/12/25 10:50:32;;;;;;;1.00;0.90;;;10.20;99.90;;;;;;4874024;29;20134;-70
2023/12/25 10:53:40;;;;;;;0.60;0.60;;;10.10;99.90;;;;;;4878400;29;20044;-69
2023/12/25 11:00:03;;;;;;;0.88;0.88;;;10.00;99.90;;;;;;4938568;28;20494;-69
2023/12/25 11:02:57;;;;;;;;;;;;;;;;;;;;;
2023/12/25 11:05:37;;;;;;;0.98;0.80;;;10.10;99.90;;;;;;4949474;28;20035;-69
2023/12/25 11:08:05;;;;;;;1.80;1.52;;;10.00;99.90;;;;;;4981743;28;20034;-69
2023/12/25 11:10:59;;;;;;;1.38;1.23;;;10.00;99.90;;;;;;5024856;28;20157;-70
2023/12/25 11:13:39;;;;;;;3.03;2.10;;;9.90;99.90;;;;;;5035828;28;20048;-70
2023/12/25 11:20:09;;;;;;;4.05;2.13;;;9.90;99.90;;;;;;5030931;28;20441;-70
2023/12/25 11:22:44;;;;;;;12.48;5.50;;;9.80;99.90;;;;;;5049826;28;20036;-71
2023/12/25 11:25:40;;;;;;;10.15;5.40;;;9.70;99.90;;;;;;5048234;28;20113;-70
2023/12/25 11:28:28;;;;;;;7.60;3.40;;;9.60;99.90;;;;;;5046733;28;20056;-70
2023/12/25 11:31:32;;;;;;;17.90;8.40;;;9.50;99.90;;;;;;4958194;28;20034;-70
2023/12/25 11:37:57;;;;;;;20.10;8.40;;;9.50;99.90;;;;;;4995620;28;20053;-71
2023/12/25 11:40:40;;;;;;;40.67;18.58;;;9.60;99.90;;;;;;5008985;28;20086;-68
2023/12/25 11:43:09;;;;;;;50.67;19.65;;;9.50;99.90;;;;;;4998285;28;20199;-68
2023/12/25 11:46:10;;;;;;;52.42;21.33;;;9.70;99.90;;;;;;5018817;28;20026;-70
2023/12/25 11:48:57;;;;;;;17.45;8.02;;;9.70;99.90;;;;;;5011807;28;20053;-69
2023/12/25 11:51:56;;;;;;;23.40;9.57;;;9.80;99.90;;;;;;4980073;28;20034;-69
2023/12/25 11:54:51;;;;;;;14.70;7.18;;;9.90;99.90;;;;;;4991310;28;20297;-70
2023/12/25 11:57:24;;;;;;;169.13;70.82;;;10.10;99.90;;;;;;4986986;28;20058;-70
2023/12/25 11:59:52;;;;;;;54.20;23.33;;;10.30;99.90;;;;;;5009465;28;20117;-70
2023/12/25 12:02:18;;;;;;;34.60;15.35;;;10.60;99.90;;;;;;4986482;28;20095;-70
2023/12/25 12:04:58;;;;;;;25.88;13.45;;;10.80;99.90;;;;;;5006803;28;20066;-70
2023/12/25 12:07:57;;;;;;;6.07;4.82;;;10.80;99.90;;;;;;5023182;28;20084;-70
2023/12/25 12:10:42;;;;;;;1.63;1.50;;;10.90;99.90;;;;;;4992394;28;20067;-70
2023/12/25 12:13:26;;;;;;;2.17;2.08;;;11.00;99.90;;;;;;5053745;28;20499;-70
2023/12/25 12:19:28;;;;;;;0.90;0.90;;;11.00;99.90;;;;;;5024338;28;20037;-70
2023/12/25 12:22:28;;;;;;;0.80;0.80;;;11.10;99.90;;;;;;4968228;28;20434;-69
2023/12/25 12:25:32;;;;;;;1.10;1.00;;;11.20;99.90;;;;;;5046980;28;20442;-70
2023/12/25 12:30:53;;;;;;;1.42;1.33;;;11.10;99.90;;;;;;4992806;28;20035;-70
2023/12/25 12:33:19;;;;;;;1.48;1.35;;;11.20;99.90;;;;;;5012470;28;20036;-69
2023/12/25 12:35:50;;;;;;;1.17;1.08;;;11.10;99.90;;;;;;5063726;28;20020;-70
2023/12/25 12:38:16;;;;;;;0.90;0.90;;;11.10;99.90;;;;;;4965282;28;20031;-72
2023/12/25 12:40:42;;;;;;;0.63;0.63;;;11.10;99.90;;;;;;5042093;28;20041;-70
2023/12/25 12:43:08;;;;;;;1.25;1.08;;;11.00;99.90;;;;;;5044716;28;20039;-70
2023/12/25 12:45:33;;;;;;;0.77;0.75;;;11.00;99.90;;;;;;5045197;28;20029;-70
2023/12/25 12:48:01;;;;;;;0.88;0.88;;;10.90;99.90;;;;;;5064112;28;20500;-70
2023/12/25 12:50:27;;;;;;;1.10;1.10;;;10.90;99.90;;;;;;5059655;28;20498;-69
2023/12/25 12:52:53;;;;;;;1.00;1.00;;;10.80;99.90;;;;;;5060078;28;20284;-70
2023/12/25 12:55:18;;;;;;;0.70;0.70;;;10.80;99.90;;;;;;5053576;28;20426;-69
2023/12/25 12:57:44;;;;;;;0.85;0.85;;;10.90;99.90;;;;;;5064539;28;20469;-69
2023/12/25 13:00:10;;;;;;;1.00;0.90;;;10.90;99.90;;;;;;5066732;28;20028;-69
2023/12/25 13:02:42;;;;;;;1.15;0.88;;;10.90;99.90;;;;;;5069330;28;20037;-69
2023/12/25 13:05:08;;;;;;;0.88;0.88;;;11.00;99.90;;;;;;5051434;28;20032;-70
2023/12/25 13:07:33;;;;;;;1.30;1.20;;;11.00;99.90;;;;;;5070243;28;20033;-69
2023/12/25 13:10:00;;;;;;;0.80;0.80;;;11.00;99.90;;;;;;5027292;28;20044;-69
2023/12/25 13:12:26;;;;;;;1.20;1.10;;;11.00;99.90;;;;;;5001525;28;20034;-70
2023/12/25 13:14:51;;;;;;;0.80;0.80;;;10.90;99.90;;;;;;5007087;28;20032;-69
2023/12/25 13:17:17;;;;;;;0.70;0.60;;;10.90;99.90;;;;;;4987136;28;20071;-69
2023/12/25 13:19:43;;;;;;;1.02;0.90;;;10.90;99.90;;;;;;4987408;28;20023;-69
2023/12/25 13:22:09;;;;;;;0.70;0.70;;;10.90;99.90;;;;;;4987707;28;20087;-70
2023/12/25 13:24:34;;;;;;;1.35;1.10;;;10.90;99.90;;;;;;4983200;28;20110;-70
2023/12/25 13:27:05;;;;;;;0.77;0.77;;;10.90;99.90;;;;;;4982047;28;20489;-70
2023/12/25 13:29:31;;;;;;;1.30;1.05;;;10.90;99.90;;;;;;4985637;28;20101;-70
2023/12/25 13:31:56;;;;;;;1.00;0.77;;;10.90;99.90;;;;;;4984298;28;20509;-70
2023/12/25 13:34:24;;;;;;;1.15;1.05;;;10.80;99.90;;;;;;4990062;28;20044;-70
2023/12/25 13:36:50;;;;;;;0.57;0.57;;;10.90;99.90;;;;;;5005484;28;20041;-70
2023/12/25 13:39:15;;;;;;;0.70;0.70;;;10.90;99.90;;;;;;4973057;28;20273;-70
2023/12/25 13:41:41;;;;;;;1.10;1.10;;;10.80;99.90;;;;;;4984080;28;20073;-70
2023/12/25 13:44:07;;;;;;;0.80;0.80;;;10.80;99.90;;;;;;4991924;28;20038;-70
2023/12/25 13:46:33;;;;;;;0.90;0.80;;;10.80;99.90;;;;;;4995979;28;20032;-70
2023/12/25 13:48:59;;;;;;;0.90;0.90;;;10.80;99.90;;;;;;5009115;28;20101;-70
2023/12/25 13:51:24;;;;;;;1.65;0.90;;;10.80;99.90;;;;;;5000023;28;20485;-70
2023/12/25 13:53:50;;;;;;;0.80;0.80;;;10.90;99.90;;;;;;5006522;28;20058;-70
2023/12/25 13:56:16;;;;;;;2.35;1.38;;;10.90;99.90;;;;;;4997057;28;20057;-70
2023/12/25 13:58:41;;;;;;;0.80;0.80;;;10.90;99.90;;;;;;4988527;28;20081;-70
2023/12/25 14:01:10;;;;;;;2.10;1.25;;;10.90;99.90;;;;;;4986139;28;20030;-70